Time;durP1;ratioP1;P1;durP2;ratioP2;P2;SDS_P1;SDS_P2;PMS_P1;PMS_P2;Temp;Humidity;BMP_temperature;BMP_pressure;BME280_temperature;BME280_humidity;BME280_pressure;Samples;Min_cycle;Max_cycle;Signal;HPM_P1;HPM_P2
2022/11/18 00:00:48;;;;;;;5.40;2.92;;;10.20;99.90;;;;;;5033074;28;20049;-64
2022/11/18 00:03:14;;;;;;;8.05;3.05;;;10.20;99.90;;;;;;5031168;28;20415;-64
2022/11/18 00:05:40;;;;;;;5.15;2.92;;;10.10;99.90;;;;;;5033598;28;20033;-63
2022/11/18 00:08:05;;;;;;;5.43;2.88;;;10.00;99.90;;;;;;5033147;28;20033;-64
2022/11/18 00:10:31;;;;;;;6.80;3.10;;;10.00;99.90;;;;;;5033755;28;20463;-63
2022/11/18 00:15:40;;;;;;;6.78;2.65;;;9.80;99.90;;;;;;5033814;28;20052;-64
2022/11/18 00:18:06;;;;;;;9.80;3.53;;;9.80;99.90;;;;;;5033685;28;20491;-63
2022/11/18 00:20:33;;;;;;;8.70;3.65;;;9.90;99.90;;;;;;5033221;28;20033;-63
2022/11/18 00:22:59;;;;;;;8.57;3.47;;;9.70;99.90;;;;;;5031003;28;20044;-63
2022/11/18 00:25:25;;;;;;;4.32;3.15;;;9.80;99.90;;;;;;5031240;28;20427;-63
2022/11/18 00:27:50;;;;;;;5.07;3.20;;;10.40;99.90;;;;;;5031369;28;20088;-63
2022/11/18 00:30:16;;;;;;;7.45;3.20;;;9.80;99.90;;;;;;5028920;28;20431;-64
2022/11/18 00:32:42;;;;;;;7.93;3.45;;;9.80;99.90;;;;;;5031182;28;20224;-64
2022/11/18 00:35:08;;;;;;;7.78;3.45;;;9.80;99.90;;;;;;5032103;28;20462;-64
2022/11/18 00:37:33;;;;;;;7.97;3.88;;;9.80;99.90;;;;;;5031725;28;20041;-63
2022/11/18 00:39:59;;;;;;;9.80;4.45;;;9.80;99.90;;;;;;5032892;28;20072;-63
2022/11/18 00:45:09;;;;;;;6.40;3.90;;;9.70;99.90;;;;;;5033121;28;20048;-63
2022/11/18 00:47:34;;;;;;;9.93;3.72;;;9.80;99.90;;;;;;5031006;28;20041;-63
2022/11/18 00:50:00;;;;;;;14.15;4.32;;;9.80;99.90;;;;;;5032196;28;20084;-63
2022/11/18 00:52:25;;;;;;;10.85;4.53;;;9.70;99.90;;;;;;5032556;28;20037;-63
2022/11/18 00:54:51;;;;;;;9.45;4.68;;;9.70;99.90;;;;;;5030896;28;20033;-63
2022/11/18 00:57:16;;;;;;;8.95;3.92;;;9.90;99.90;;;;;;5030701;28;20034;-64
2022/11/18 00:59:42;;;;;;;5.90;4.20;;;9.80;99.90;;;;;;5032696;28;20034;-63
2022/11/18 01:02:07;;;;;;;11.68;4.53;;;9.70;99.90;;;;;;5031297;28;20037;-63
2022/11/18 01:04:33;;;;;;;14.52;4.60;;;9.90;99.90;;;;;;5032040;28;20041;-63
2022/11/18 01:06:58;;;;;;;9.13;4.18;;;9.90;99.90;;;;;;5032394;28;20076;-63
2022/11/18 01:09:24;;;;;;;10.50;4.55;;;9.80;99.90;;;;;;5031105;28;20034;-64
2022/11/18 01:14:34;;;;;;;8.40;4.43;;;10.00;99.90;;;;;;5032210;28;20054;-63
2022/11/18 01:16:59;;;;;;;9.45;4.60;;;9.90;99.90;;;;;;5032096;28;20511;-63
2022/11/18 01:19:25;;;;;;;8.25;5.03;;;10.10;99.90;;;;;;5031326;28;20045;-63
2022/11/18 01:21:51;;;;;;;9.75;4.82;;;10.00;99.90;;;;;;5031043;28;20033;-63
2022/11/18 01:24:16;;;;;;;12.75;5.15;;;10.00;99.90;;;;;;5032695;28;20557;-63
2022/11/18 01:26:42;;;;;;;9.02;4.82;;;9.90;99.90;;;;;;5032287;28;20033;-63
2022/11/18 01:29:07;;;;;;;11.95;5.07;;;9.90;99.90;;;;;;5032114;28;20411;-63
2022/11/18 01:31:33;;;;;;;8.63;4.93;;;10.10;99.90;;;;;;5028191;28;20048;-63
2022/11/18 01:33:59;;;;;;;11.00;5.43;;;9.90;99.90;;;;;;5030598;28;20045;-64
2022/11/18 01:36:26;;;;;;;11.40;5.63;;;10.00;99.90;;;;;;5032164;28;20124;-63
2022/11/18 01:38:53;;;;;;;11.43;6.40;;;10.00;99.90;;;;;;5030742;28;20049;-63
2022/11/18 01:41:22;;;;;;;14.95;6.25;;;9.90;99.90;;;;;;5029917;28;20037;-63
2022/11/18 01:44:02;;;;;;;10.18;6.78;;;10.00;99.90;;;;;;5030671;28;20049;-63
2022/11/18 01:46:30;;;;;;;10.30;7.38;;;9.90;99.90;;;;;;5031527;28;20045;-63
2022/11/18 01:49:01;;;;;;;9.45;7.80;;;10.10;99.90;;;;;;5031152;28;20034;-63
2022/11/18 01:51:34;;;;;;;12.95;8.07;;;10.00;99.90;;;;;;5030940;28;20095;-64
2022/11/18 01:54:08;;;;;;;10.85;9.05;;;10.00;99.90;;;;;;5012107;28;20173;-63
2022/11/18 01:56:42;;;;;;;14.20;9.30;;;10.10;99.90;;;;;;5031216;28;20064;-63
2022/11/18 01:59:16;;;;;;;11.57;9.55;;;10.20;99.90;;;;;;5031706;28;20072;-63
2022/11/18 02:01:42;;;;;;;13.25;9.55;;;10.00;99.90;;;;;;5026835;28;20045;-63
2022/11/18 02:04:08;;;;;;;15.70;9.98;;;10.10;99.90;;;;;;5029967;28;20041;-63
2022/11/18 02:06:35;;;;;;;12.85;10.00;;;10.10;99.90;;;;;;5020935;28;20037;-63
2022/11/18 02:09:02;;;;;;;12.88;10.50;;;9.90;99.90;;;;;;5031379;28;20129;-63
2022/11/18 02:14:13;;;;;;;18.33;12.50;;;9.80;99.90;;;;;;5023353;28;20155;-63
2022/11/18 02:17:06;;;;;;;20.15;14.05;;;9.90;99.90;;;;;;5031495;28;20056;-63
2022/11/18 02:20:00;;;;;;;18.80;13.90;;;9.80;99.90;;;;;;5029509;28;20049;-63
2022/11/18 02:22:48;;;;;;;17.75;15.00;;;9.50;99.90;;;;;;5024675;28;20491;-63
2022/11/18 02:25:23;;;;;;;19.42;13.75;;;9.60;99.90;;;;;;5031678;28;20574;-63
2022/11/18 02:28:11;;;;;;;18.98;14.85;;;9.60;99.90;;;;;;5030859;28;20052;-63
2022/11/18 02:30:45;;;;;;;21.20;15.57;;;9.60;99.90;;;;;;5003550;28;20060;-63
2022/11/18 02:33:24;;;;;;;18.50;14.77;;;9.50;99.90;;;;;;5030853;28;20045;-63
2022/11/18 02:36:14;;;;;;;16.77;14.15;;;9.50;99.90;;;;;;5033936;28;20377;-63
2022/11/18 02:38:48;;;;;;;24.95;17.30;;;9.40;99.90;;;;;;5030922;28;20059;-63
2022/11/18 02:41:20;;;;;;;17.58;14.95;;;9.40;99.90;;;;;;5036094;28;20037;-63
2022/11/18 02:43:48;;;;;;;22.63;17.52;;;10.20;99.90;;;;;;5036932;28;20487;-63
2022/11/18 02:46:22;;;;;;;26.40;19.33;;;9.30;99.90;;;;;;5037455;28;20049;-63
2022/11/18 02:48:51;;;;;;;24.70;18.00;;;9.40;99.90;;;;;;5037917;28;20507;-63
2022/11/18 02:51:21;;;;;;;26.42;21.02;;;9.40;99.90;;;;;;5036965;28;20056;-63
2022/11/18 02:53:49;;;;;;;25.42;20.45;;;9.50;99.90;;;;;;5034275;28;20065;-63
2022/11/18 02:56:17;;;;;;;24.73;22.13;;;9.50;99.90;;;;;;5036546;28;20068;-63
2022/11/18 02:58:42;;;;;;;33.95;23.95;;;9.50;99.90;;;;;;5036907;28;20041;-63
2022/11/18 03:01:26;;;;;;;27.80;19.63;;;9.40;99.90;;;;;;5037546;28;20037;-63
2022/11/18 03:03:51;;;;;;;33.75;25.00;;;9.40;99.90;;;;;;5035349;28;20430;-63
2022/11/18 03:06:32;;;;;;;31.13;23.95;;;9.50;99.90;;;;;;5037347;28;20049;-63
2022/11/18 03:09:04;;;;;;;29.35;23.70;;;9.60;99.90;;;;;;5037595;28;20077;-63
2022/11/18 03:11:36;;;;;;;27.40;22.77;;;9.40;99.90;;;;;;5021447;28;20045;-63
2022/11/18 03:14:13;;;;;;;36.10;25.08;;;9.50;99.90;;;;;;5031698;28;20069;-63
2022/11/18 03:16:57;;;;;;;37.03;25.85;;;9.50;99.90;;;;;;5028912;28;20049;-63
2022/11/18 03:19:33;;;;;;;33.50;23.50;;;9.50;99.90;;;;;;5036164;28;20049;-63
2022/11/18 03:22:18;;;;;;;36.33;27.15;;;9.60;99.90;;;;;;5036190;28;20125;-63
2022/11/18 03:24:52;;;;;;;40.20;27.85;;;9.80;99.90;;;;;;5023817;28;20049;-63
2022/11/18 03:27:31;;;;;;;40.95;27.15;;;9.70;99.90;;;;;;5034612;28;20068;-63
2022/11/18 03:30:04;;;;;;;38.80;27.52;;;9.80;99.90;;;;;;5037865;28;20037;-63
2022/11/18 03:32:35;;;;;;;41.72;27.95;;;10.00;99.90;;;;;;5035160;28;20045;-63
2022/11/18 03:35:11;;;;;;;47.67;31.77;;;10.00;99.90;;;;;;5036558;28;20045;-63
2022/11/18 03:37:39;;;;;;;39.25;25.88;;;9.80;99.90;;;;;;5033655;28;20097;-63
2022/11/18 03:40:19;;;;;;;45.30;29.45;;;9.80;99.90;;;;;;5024948;28;20037;-63
2022/11/18 03:42:49;;;;;;;48.08;29.92;;;10.10;99.90;;;;;;5036261;28;20039;-63
2022/11/18 03:45:18;;;;;;;46.50;30.23;;;10.10;99.90;;;;;;5035567;28;20037;-63
2022/11/18 03:47:54;;;;;;;39.88;27.52;;;9.80;99.90;;;;;;5032410;28;20495;-63
2022/11/18 03:50:26;;;;;;;48.87;30.60;;;9.90;99.90;;;;;;5034045;28;20033;-63
2022/11/18 03:52:53;;;;;;;48.67;32.10;;;10.20;99.90;;;;;;5030592;28;20574;-63
2022/11/18 03:55:25;;;;;;;37.63;25.92;;;10.20;99.90;;;;;;5029445;28;20037;-63
2022/11/18 03:58:17;;;;;;;38.88;26.02;;;10.10;99.90;;;;;;5033995;28;20107;-63
2022/11/18 04:00:47;;;;;;;47.38;30.45;;;10.10;99.90;;;;;;5033375;28;20060;-63
2022/11/18 04:03:13;;;;;;;40.67;28.15;;;10.10;99.90;;;;;;5032907;28;20140;-63
2022/11/18 04:05:41;;;;;;;48.00;28.83;;;10.10;99.90;;;;;;5033816;28;20120;-63
2022/11/18 04:08:13;;;;;;;45.60;29.92;;;10.30;99.90;;;;;;5020813;28;20029;-63
2022/11/18 04:10:51;;;;;;;43.33;29.00;;;10.30;99.90;;;;;;5030888;28;20049;-63
2022/11/18 04:13:34;;;;;;;44.60;28.77;;;10.50;99.90;;;;;;5031945;28;20124;-63
2022/11/18 04:15:59;;;;;;;50.83;31.15;;;10.30;99.90;;;;;;5032815;28;20034;-63
2022/11/18 04:18:25;;;;;;;40.65;25.83;;;10.50;99.90;;;;;;5032312;28;20025;-63
2022/11/18 04:20:50;;;;;;;40.65;25.73;;;10.20;99.90;;;;;;5032551;28;20042;-63
2022/11/18 04:23:16;;;;;;;39.92;25.85;;;10.20;99.90;;;;;;5031606;28;20042;-63
2022/11/18 04:25:42;;;;;;;40.67;24.33;;;10.30;99.90;;;;;;5018356;28;20065;-63
2022/11/18 04:28:07;;;;;;;43.97;28.77;;;10.60;99.90;;;;;;5033135;28;20123;-63
2022/11/18 04:30:34;;;;;;;49.85;28.92;;;10.60;99.90;;;;;;5033448;28;20042;-63
2022/11/18 04:33:00;;;;;;;40.72;25.52;;;10.50;99.90;;;;;;5032213;28;20126;-63
2022/11/18 04:35:26;;;;;;;45.60;28.80;;;10.50;99.90;;;;;;5033068;28;20069;-63
2022/11/18 04:37:51;;;;;;;44.17;28.70;;;10.50;99.90;;;;;;5032952;28;20446;-63
2022/11/18 04:40:17;;;;;;;44.10;27.05;;;10.40;99.90;;;;;;5033066;28;20124;-63
2022/11/18 04:42:43;;;;;;;46.90;28.42;;;10.40;99.90;;;;;;5031661;28;20041;-63
2022/11/18 04:45:09;;;;;;;41.80;23.98;;;10.60;99.90;;;;;;5014602;28;20051;-63
2022/11/18 04:47:34;;;;;;;32.55;19.98;;;10.50;99.90;;;;;;5028053;28;20118;-63
2022/11/18 04:50:00;;;;;;;37.55;22.60;;;10.60;99.90;;;;;;5028981;28;20487;-64
2022/11/18 04:52:26;;;;;;;38.60;23.63;;;10.40;99.90;;;;;;5030858;28;20033;-63
2022/11/18 04:54:51;;;;;;;35.78;21.77;;;10.40;99.90;;;;;;5029934;28;20083;-63
2022/11/18 04:57:17;;;;;;;39.85;23.08;;;10.40;99.90;;;;;;5032049;28;20041;-63
2022/11/18 04:59:42;;;;;;;37.47;24.08;;;10.50;99.90;;;;;;5033201;28;20042;-63
2022/11/18 05:02:08;;;;;;;31.95;20.10;;;10.70;99.90;;;;;;5030316;28;20041;-63
2022/11/18 05:04:33;;;;;;;38.33;22.90;;;10.50;99.90;;;;;;5031948;28;20061;-63
2022/11/18 05:07:01;;;;;;;35.75;21.52;;;10.60;99.90;;;;;;5032530;28;20232;-63
2022/11/18 05:09:27;;;;;;;40.88;21.67;;;10.60;99.90;;;;;;5032840;28;20411;-63
2022/11/18 05:14:37;;;;;;;32.90;19.60;;;10.60;99.90;;;;;;5031887;28;20042;-63
2022/11/18 05:17:05;;;;;;;37.28;21.60;;;11.20;99.90;;;;;;5032484;28;20479;-63
2022/11/18 05:19:30;;;;;;;38.88;23.52;;;10.60;99.90;;;;;;5028697;28;20052;-63
2022/11/18 05:21:56;;;;;;;35.40;21.05;;;10.70;99.90;;;;;;5031738;28;20132;-63
2022/11/18 05:24:23;;;;;;;37.72;20.70;;;10.40;99.90;;;;;;5022053;28;20124;-63
2022/11/18 05:26:49;;;;;;;35.13;21.45;;;10.40;99.90;;;;;;5031063;28;20355;-63
2022/11/18 05:29:17;;;;;;;40.38;23.60;;;10.40;99.90;;;;;;5030854;28;20545;-63
2022/11/18 05:31:43;;;;;;;36.90;24.05;;;10.70;99.90;;;;;;5032363;28;20034;-63
2022/11/18 05:34:09;;;;;;;31.45;20.83;;;10.40;99.90;;;;;;5030195;28;20074;-64
2022/11/18 05:36:34;;;;;;;32.90;21.25;;;10.60;99.90;;;;;;5031966;28;20495;-63
2022/11/18 05:39:00;;;;;;;36.65;22.40;;;10.40;99.90;;;;;;5031904;28;20550;-63
2022/11/18 05:44:10;;;;;;;42.97;26.90;;;10.60;99.90;;;;;;5031051;28;20048;-63
2022/11/18 05:46:35;;;;;;;34.65;21.17;;;10.30;99.90;;;;;;5030001;28;20041;-63
2022/11/18 05:49:01;;;;;;;32.15;22.13;;;10.40;99.90;;;;;;5031327;28;20572;-63
2022/11/18 05:51:27;;;;;;;36.35;23.25;;;10.40;99.90;;;;;;5031690;28;20537;-63
2022/11/18 05:53:54;;;;;;;40.90;23.85;;;10.60;99.90;;;;;;5030484;28;20091;-63
2022/11/18 05:56:26;;;;;;;40.78;23.42;;;10.30;99.90;;;;;;5027568;28;20049;-63
2022/11/18 05:58:51;;;;;;;34.42;21.52;;;10.40;99.90;;;;;;5031827;28;20092;-63
2022/11/18 06:01:26;;;;;;;34.22;22.58;;;10.60;99.90;;;;;;5031575;28;20065;-63
2022/11/18 06:03:51;;;;;;;39.50;23.65;;;10.60;99.90;;;;;;5013449;28;20579;-64
2022/11/18 06:06:21;;;;;;;31.90;21.02;;;10.30;99.90;;;;;;5030036;28;20095;-63
2022/11/18 06:08:54;;;;;;;32.03;21.23;;;10.30;99.90;;;;;;5030172;28;20057;-63
2022/11/18 06:11:20;;;;;;;31.60;18.65;;;10.30;99.90;;;;;;5023754;28;20081;-63
2022/11/18 06:14:03;;;;;;;30.45;17.98;;;10.40;99.90;;;;;;5011988;28;20061;-63
2022/11/18 06:16:30;;;;;;;32.90;18.17;;;10.60;99.90;;;;;;5031394;28;20029;-63
2022/11/18 06:18:56;;;;;;;41.65;24.73;;;10.40;99.90;;;;;;5031575;28;20087;-63
2022/11/18 06:21:22;;;;;;;32.70;19.35;;;10.40;99.90;;;;;;5028896;28;20069;-63
2022/11/18 06:23:48;;;;;;;33.55;19.65;;;10.30;99.90;;;;;;5023372;28;20034;-63
2022/11/18 06:26:15;;;;;;;37.20;22.35;;;10.60;99.90;;;;;;5011937;28;20095;-63
2022/11/18 06:28:44;;;;;;;38.30;23.83;;;10.60;99.90;;;;;;5026994;28;20049;-63
2022/11/18 06:31:09;;;;;;;36.50;22.15;;;10.60;99.90;;;;;;5031036;28;20467;-63
2022/11/18 06:33:35;;;;;;;28.50;19.58;;;10.30;99.90;;;;;;5028663;28;20038;-63
2022/11/18 06:36:00;;;;;;;32.30;18.38;;;10.40;99.90;;;;;;5031626;28;20069;-63
2022/11/18 06:38:26;;;;;;;39.97;20.83;;;10.30;99.90;;;;;;5030464;28;20029;-63
2022/11/18 06:40:51;;;;;;;39.17;24.23;;;10.60;99.90;;;;;;5030286;28;20041;-64
2022/11/18 06:43:59;;;;;;;28.10;17.38;;;10.40;99.90;;;;;;5029867;28;20191;-63
2022/11/18 06:48:57;;;;;;;29.85;17.70;;;10.50;99.90;;;;;;5029266;28;20060;-63
2022/11/18 06:51:23;;;;;;;28.58;19.20;;;10.10;99.90;;;;;;5029638;28;20037;-63
2022/11/18 06:53:50;;;;;;;30.38;18.88;;;10.30;99.90;;;;;;5020527;28;20034;-63
2022/11/18 06:56:17;;;;;;;35.63;19.40;;;10.10;99.90;;;;;;5021847;28;20041;-63
2022/11/18 06:58:43;;;;;;;33.50;20.58;;;10.20;99.90;;;;;;5028800;28;20098;-63
2022/11/18 07:01:13;;;;;;;27.90;18.02;;;10.10;99.90;;;;;;5030863;28;20495;-63
2022/11/18 07:03:42;;;;;;;33.50;20.92;;;10.10;99.90;;;;;;5031088;28;20045;-63
2022/11/18 07:06:09;;;;;;;27.73;18.90;;;10.10;99.90;;;;;;5030919;28;20026;-63
2022/11/18 07:08:36;;;;;;;34.28;21.25;;;10.40;99.90;;;;;;5030451;28;20048;-64
2022/11/18 07:11:04;;;;;;;31.08;18.67;;;10.20;99.90;;;;;;5030059;28;20031;-62
2022/11/18 07:13:31;;;;;;;34.38;20.33;;;10.10;99.90;;;;;;5030442;28;20477;-62
2022/11/18 07:16:07;;;;;;;36.20;22.08;;;10.40;99.90;;;;;;5030730;28;20033;-62
2022/11/18 07:18:34;;;;;;;40.28;21.98;;;10.40;99.90;;;;;;5028771;28;20030;-63
2022/11/18 07:21:05;;;;;;;26.92;17.88;;;10.40;99.90;;;;;;5031763;28;20041;-63
2022/11/18 07:23:31;;;;;;;28.83;18.17;;;10.10;99.90;;;;;;5031432;28;20164;-63
2022/11/18 07:25:57;;;;;;;31.05;20.17;;;10.40;99.90;;;;;;5029736;28;20050;-62
2022/11/18 07:28:23;;;;;;;33.70;21.15;;;10.20;99.90;;;;;;5017141;28;20121;-62
2022/11/18 07:30:49;;;;;;;32.67;21.60;;;10.40;99.90;;;;;;5033644;28;20087;-63
2022/11/18 07:33:14;;;;;;;29.48;18.20;;;10.50;99.90;;;;;;5032978;28;20430;-62
2022/11/18 07:35:40;;;;;;;36.30;21.20;;;10.30;99.90;;;;;;5032762;28;20044;-63
2022/11/18 07:38:06;;;;;;;27.10;18.17;;;10.40;99.90;;;;;;5030637;28;20030;-63
2022/11/18 07:40:31;;;;;;;35.60;20.02;;;10.50;99.90;;;;;;5030122;28;20064;-63
2022/11/18 07:42:57;;;;;;;43.25;23.40;;;10.50;99.90;;;;;;5025032;28;20038;-62
2022/11/18 07:45:23;;;;;;;26.35;16.35;;;10.30;99.90;;;;;;5025553;28;20398;-63
2022/11/18 07:47:49;;;;;;;33.30;19.77;;;10.50;99.90;;;;;;5026898;28;20075;-62
2022/11/18 07:50:18;;;;;;;39.55;23.90;;;10.00;99.90;;;;;;5027672;28;20091;-63
2022/11/18 07:52:44;;;;;;;34.67;21.40;;;10.20;99.90;;;;;;5030134;28;20227;-62
2022/11/18 07:55:09;;;;;;;32.38;20.77;;;10.10;99.90;;;;;;5023379;28;20136;-63
2022/11/18 07:57:35;;;;;;;29.17;17.02;;;10.30;99.90;;;;;;5021900;28;20494;-62
2022/11/18 08:00:01;;;;;;;29.45;17.15;;;10.20;99.90;;;;;;5026766;28;20094;-63
2022/11/18 08:02:26;;;;;;;36.08;19.75;;;10.50;99.90;;;;;;5029637;28;20038;-62
2022/11/18 08:04:52;;;;;;;28.48;15.98;;;10.20;99.90;;;;;;5020711;28;20029;-63
2022/11/18 08:07:17;;;;;;;33.65;18.80;;;10.20;99.90;;;;;;5028183;28;20041;-62
2022/11/18 08:09:43;;;;;;;31.30;19.05;;;10.50;99.90;;;;;;5030500;28;20069;-62
2022/11/18 08:12:08;;;;;;;33.40;18.75;;;10.20;99.90;;;;;;5031134;28;20499;-62
2022/11/18 08:14:34;;;;;;;24.60;15.45;;;10.20;99.90;;;;;;5030339;28;20045;-63
2022/11/18 08:17:00;;;;;;;32.75;21.10;;;10.40;99.90;;;;;;5030032;28;20141;-62
2022/11/18 08:19:25;;;;;;;30.83;19.08;;;10.20;99.90;;;;;;5029542;28;20053;-63
2022/11/18 08:21:51;;;;;;;29.60;16.45;;;10.10;99.90;;;;;;5028048;28;20048;-63
2022/11/18 08:24:16;;;;;;;26.92;17.20;;;10.20;99.90;;;;;;5020607;28;20042;-63
2022/11/18 08:26:42;;;;;;;34.80;20.50;;;10.40;99.90;;;;;;5022205;28;20046;-62
2022/11/18 08:29:07;;;;;;;26.73;19.08;;;10.20;99.90;;;;;;5027603;28;20041;-62
2022/11/18 08:31:33;;;;;;;38.45;19.45;;;10.50;99.90;;;;;;5033012;28;20102;-62
2022/11/18 08:34:01;;;;;;;30.00;15.15;;;10.50;99.90;;;;;;5029073;28;20033;-62
2022/11/18 08:36:28;;;;;;;29.17;19.30;;;11.20;99.90;;;;;;5031999;28;20033;-62
2022/11/18 08:38:55;;;;;;;31.75;16.88;;;10.40;99.90;;;;;;5032312;28;20095;-63
2022/11/18 08:41:39;;;;;;;24.65;14.75;;;10.20;99.90;;;;;;5028861;28;20048;-62
2022/11/18 08:44:10;;;;;;;31.55;18.02;;;10.40;99.90;;;;;;5001763;28;20072;-63
2022/11/18 08:46:39;;;;;;;27.02;16.95;;;10.20;99.90;;;;;;5025358;28;20053;-62
2022/11/18 08:49:05;;;;;;;29.27;16.05;;;10.10;99.90;;;;;;5013795;28;20046;-62
2022/11/18 08:51:30;;;;;;;39.50;20.45;;;10.20;99.90;;;;;;5026456;28;20041;-62
2022/11/18 08:53:56;;;;;;;32.40;20.38;;;10.20;99.90;;;;;;5026854;28;20048;-64
2022/11/18 08:56:23;;;;;;;36.35;21.33;;;10.30;99.90;;;;;;5018763;28;20484;-63
2022/11/18 08:58:49;;;;;;;33.78;20.60;;;10.30;99.90;;;;;;5030861;28;20045;-67
2022/11/18 09:01:15;;;;;;;30.60;17.13;;;10.30;99.90;;;;;;5026802;28;20033;-64
2022/11/18 09:03:41;;;;;;;36.22;19.17;;;10.10;99.90;;;;;;5026122;28;20618;-63
2022/11/18 09:06:13;;;;;;;29.45;16.17;;;10.20;99.90;;;;;;5045616;28;20148;-63
2022/11/18 09:08:39;;;;;;;30.10;18.70;;;10.10;99.90;;;;;;5029460;28;20045;-63
2022/11/18 09:11:11;;;;;;;31.42;17.50;;;10.40;99.90;;;;;;5031726;28;20098;-63
2022/11/18 09:13:37;;;;;;;34.20;16.70;;;10.10;99.90;;;;;;5027565;28;20041;-63
2022/11/18 09:16:03;;;;;;;34.03;17.25;;;10.10;99.90;;;;;;5026649;28;20496;-64
2022/11/18 09:18:31;;;;;;;31.65;18.52;;;10.30;99.90;;;;;;5026484;28;20051;-64
2022/11/18 09:20:59;;;;;;;35.83;17.30;;;10.30;99.90;;;;;;5030471;28;20140;-63
2022/11/18 09:23:25;;;;;;;25.10;15.35;;;10.20;99.90;;;;;;5020254;28;21014;-64
2022/11/18 09:25:58;;;;;;;22.77;14.80;;;10.30;99.90;;;;;;5018287;28;20030;-63
2022/11/18 09:28:24;;;;;;;26.88;14.77;;;10.30;99.90;;;;;;5027604;28;20061;-63
2022/11/18 09:30:49;;;;;;;28.13;14.95;;;10.00;99.90;;;;;;5021625;28;20034;-63
2022/11/18 09:33:15;;;;;;;26.00;14.30;;;10.20;99.90;;;;;;5028362;28;20035;-63
2022/11/18 09:35:42;;;;;;;25.60;13.02;;;9.90;99.90;;;;;;5029370;28;20116;-63
2022/11/18 09:38:08;;;;;;;31.27;14.13;;;10.00;99.90;;;;;;5028132;28;20049;-63
2022/11/18 09:40:55;;;;;;;25.30;13.52;;;10.00;99.90;;;;;;5023972;28;20033;-64
2022/11/18 09:43:39;;;;;;;21.48;13.05;;;10.20;99.90;;;;;;5023395;28;20045;-63
2022/11/18 09:46:33;;;;;;;24.13;12.70;;;10.10;99.90;;;;;;5031095;28;20407;-63
2022/11/18 09:49:13;;;;;;;33.28;15.82;;;10.10;99.90;;;;;;5022592;28;20087;-63
2022/11/18 09:51:41;;;;;;;29.98;15.82;;;9.90;99.90;;;;;;5022123;28;20042;-63
2022/11/18 09:54:31;;;;;;;21.65;12.65;;;10.00;99.90;;;;;;5020179;28;20445;-63
2022/11/18 09:56:57;;;;;;;33.05;13.25;;;9.90;99.90;;;;;;5027330;28;20529;-63
2022/11/18 09:59:26;;;;;;;22.50;12.80;;;9.80;99.90;;;;;;5012698;28;20133;-63
2022/11/18 10:01:56;;;;;;;26.83;13.30;;;9.80;99.90;;;;;;5026328;28;20044;-63
2022/11/18 10:04:21;;;;;;;26.60;15.20;;;9.90;99.90;;;;;;5020387;28;20037;-64
2022/11/18 10:06:48;;;;;;;23.48;12.50;;;10.10;99.90;;;;;;5012159;28;20373;-63
2022/11/18 10:09:32;;;;;;;29.08;13.75;;;10.00;99.90;;;;;;5024901;28;20094;-63
2022/11/18 10:12:31;;;;;;;27.67;16.17;;;10.10;99.90;;;;;;5030414;28;20130;-63
2022/11/18 10:15:34;;;;;;;21.08;12.13;;;9.80;99.90;;;;;;5011807;28;20455;-63
2022/11/18 10:18:03;;;;;;;23.23;12.95;;;9.80;99.90;;;;;;5011615;28;20045;-63
2022/11/18 10:20:54;;;;;;;25.35;13.90;;;9.80;99.90;;;;;;5010437;28;20191;-64
2022/11/18 10:23:29;;;;;;;31.95;15.90;;;9.80;99.90;;;;;;5030406;28;20112;-63
2022/11/18 10:25:55;;;;;;;31.88;16.98;;;9.80;99.90;;;;;;5011373;28;20121;-63
2022/11/18 10:28:28;;;;;;;27.20;12.82;;;10.10;99.90;;;;;;5030063;28;20120;-63
2022/11/18 10:31:04;;;;;;;27.80;17.05;;;9.90;99.90;;;;;;5028010;28;20037;-63
2022/11/18 10:33:30;;;;;;;27.63;15.95;;;10.10;99.90;;;;;;5020477;28;20128;-63
2022/11/18 10:36:25;;;;;;;23.25;13.15;;;10.10;99.90;;;;;;5018147;28;20117;-64
2022/11/18 10:39:14;;;;;;;24.20;13.23;;;9.90;99.90;;;;;;5029986;28;20534;-63
2022/11/18 10:41:50;;;;;;;37.55;17.92;;;10.10;99.90;;;;;;5030119;28;20049;-63
2022/11/18 10:44:38;;;;;;;24.90;13.35;;;10.20;99.90;;;;;;5016994;28;20088;-63
2022/11/18 10:47:29;;;;;;;21.92;12.80;;;10.10;99.90;;;;;;5010441;28;20072;-63
2022/11/18 10:49:59;;;;;;;26.35;14.82;;;10.00;99.90;;;;;;5014987;28;20057;-64
2022/11/18 10:52:26;;;;;;;29.27;14.63;;;10.00;99.90;;;;;;5029997;28;20038;-63
2022/11/18 10:55:22;;;;;;;28.65;15.32;;;10.20;99.90;;;;;;5010621;28;20088;-63
2022/11/18 10:57:52;;;;;;;29.65;14.55;;;10.00;99.90;;;;;;5021277;28;20069;-63
2022/11/18 11:00:44;;;;;;;19.60;13.13;;;10.30;99.90;;;;;;5033357;28;20112;-64
2022/11/18 11:03:26;;;;;;;34.28;16.90;;;10.10;99.90;;;;;;5019807;28;20450;-63
2022/11/18 11:06:26;;;;;;;17.20;10.35;;;10.10;99.90;;;;;;5023562;28;20120;-63
2022/11/18 11:08:55;;;;;;;23.48;14.10;;;10.00;99.90;;;;;;5028440;28;20045;-63
2022/11/18 11:11:35;;;;;;;21.40;12.60;;;10.10;99.90;;;;;;5033800;28;20507;-63
2022/11/18 11:14:23;;;;;;;22.17;12.50;;;10.00;99.90;;;;;;5032645;28;20037;-63
2022/11/18 11:17:05;;;;;;;21.65;12.57;;;10.20;99.90;;;;;;5022056;28;20029;-64
2022/11/18 11:19:53;;;;;;;25.40;14.93;;;10.00;99.90;;;;;;5028825;28;20044;-63
2022/11/18 11:22:19;;;;;;;26.95;15.15;;;9.80;99.90;;;;;;5023317;28;20033;-64
2022/11/18 11:24:45;;;;;;;19.55;11.45;;;9.90;99.90;;;;;;5026707;28;20030;-63
2022/11/18 11:27:32;;;;;;;20.23;13.48;;;10.00;99.90;;;;;;5026228;28;20053;-64
2022/11/18 11:30:27;;;;;;;22.17;12.98;;;10.10;99.90;;;;;;5023715;28;20037;-63
2022/11/18 11:33:29;;;;;;;24.35;14.50;;;10.20;99.90;;;;;;5028651;28;20084;-63
2022/11/18 11:36:07;;;;;;;27.52;14.93;;;10.00;99.90;;;;;;5025002;28;20042;-63
2022/11/18 11:38:41;;;;;;;25.75;14.27;;;10.20;99.90;;;;;;5032531;28;20029;-63
2022/11/18 11:41:24;;;;;;;21.45;13.05;;;10.00;99.90;;;;;;5033502;28;20044;-63
2022/11/18 11:43:53;;;;;;;17.30;9.52;;;10.20;99.90;;;;;;5030912;28;20046;-63
2022/11/18 11:47:45;;;;;;;23.73;11.63;;;10.00;99.90;;;;;;5028680;28;20048;-63
2022/11/18 11:50:02;;;;;;;21.25;12.57;;;10.20;99.90;;;;;;5029296;28;20049;-64
2022/11/18 11:52:59;;;;;;;18.65;10.52;;;10.20;99.90;;;;;;5033267;28;20514;-63
2022/11/18 11:56:15;;;;;;;17.63;11.50;;;10.00;99.90;;;;;;5018717;28;20400;-63
2022/11/18 11:58:54;;;;;;;25.83;13.73;;;9.80;99.90;;;;;;5015174;28;20495;-64
2022/11/18 12:01:43;;;;;;;22.50;11.85;;;10.00;99.90;;;;;;5028377;28;20119;-63
2022/11/18 12:04:49;;;;;;;21.33;13.60;;;9.80;99.90;;;;;;5029742;28;20038;-64
2022/11/18 12:07:18;;;;;;;28.45;15.85;;;10.00;99.90;;;;;;5022238;28;20228;-64
2022/11/18 12:10:03;;;;;;;27.42;14.73;;;9.90;99.90;;;;;;5024914;28;20034;-64
2022/11/18 12:12:59;;;;;;;27.98;17.80;;;9.80;99.90;;;;;;5023422;28;20057;-65
2022/11/18 12:15:45;;;;;;;21.33;14.32;;;10.10;99.90;;;;;;5004783;28;20388;-64
2022/11/18 12:18:28;;;;;;;19.10;12.55;;;9.90;99.90;;;;;;5029758;28;20034;-64
2022/11/18 12:20:54;;;;;;;24.63;14.68;;;9.80;99.90;;;;;;5033581;28;20045;-63
2022/11/18 12:23:27;;;;;;;14.95;10.13;;;9.90;99.90;;;;;;5033962;28;20051;-63
2022/11/18 12:26:02;;;;;;;25.52;15.45;;;9.80;99.90;;;;;;5019756;28;20045;-63
2022/11/18 12:28:31;;;;;;;20.10;12.75;;;9.80;99.90;;;;;;5031854;28;20041;-63
2022/11/18 12:31:15;;;;;;;14.82;9.60;;;9.70;99.90;;;;;;5033700;28;20049;-64
2022/11/18 12:34:02;;;;;;;18.63;11.90;;;9.70;99.90;;;;;;5033248;28;20041;-64
2022/11/18 12:36:28;;;;;;;14.55;9.25;;;9.70;99.90;;;;;;5014815;28;20042;-63
2022/11/18 12:38:54;;;;;;;19.95;12.45;;;9.50;99.90;;;;;;5028933;28;20124;-64
2022/11/18 12:44:27;;;;;;;22.48;13.80;;;9.30;99.90;;;;;;5013610;28;20095;-63
2022/11/18 12:46:57;;;;;;;20.27;13.07;;;9.30;99.90;;;;;;5033332;28;20022;-63
2022/11/18 12:49:23;;;;;;;24.00;15.13;;;9.20;99.90;;;;;;5023872;28;20041;-63
2022/11/18 12:52:27;;;;;;;17.10;9.65;;;9.40;99.90;;;;;;5032400;28;20045;-64
2022/11/18 12:54:52;;;;;;;20.35;10.27;;;9.30;99.90;;;;;;5013890;28;20042;-63
2022/11/18 12:57:23;;;;;;;18.52;11.32;;;9.50;99.90;;;;;;5029244;28;20483;-63
2022/11/18 12:59:49;;;;;;;19.42;11.98;;;9.40;99.90;;;;;;5033404;28;20038;-63
2022/11/18 13:02:15;;;;;;;21.85;11.52;;;9.20;99.90;;;;;;5031758;28;20121;-63
2022/11/18 13:04:41;;;;;;;17.40;11.40;;;9.50;99.90;;;;;;5026206;28;20053;-63
2022/11/18 13:09:57;;;;;;;16.35;9.60;;;9.20;99.90;;;;;;5025245;28;20061;-63
2022/11/18 13:12:27;;;;;;;21.27;12.85;;;9.20;99.90;;;;;;5029682;28;20057;-63
2022/11/18 13:17:53;;;;;;;20.65;13.10;;;9.30;99.90;;;;;;5027097;28;20543;-63
2022/11/18 13:20:32;;;;;;;22.02;14.20;;;9.50;99.90;;;;;;5027441;28;21861;-64
2022/11/18 13:25:55;;;;;;;21.77;13.52;;;9.20;99.90;;;;;;5020545;28;20108;-63